WetterOnline ( https://www.wetteronline.ch )

Wetter aktuell Salzburg

Aktuelles Wetter: Salzburg Flughafen (450m)

6-stündlich | Neueste Meldungen
Ortszeit Temperatur Wetter
Fr, 03.12. 1:00 0.2° C Schneefall
Do, 02.12. 19:00 4.0° C leichter Regen
Do, 02.12. 13:00 4.9° C wolkig
Do, 02.12. 7:00 3.6° C bedeckt
Do, 02.12. 1:00 4.0° C bewölkt
Mi, 01.12. 19:00 4.8° C wolkig
Mi, 01.12. 13:00 7.6° C leicht bewölkt
Mi, 01.12. 7:00 2.8° C leichter Regen
Ortszeit Temperatur Wetter
Fr, 03.12. 1:50 1° C leichter Schneefall
Fr, 03.12. 1:20 0° C leichter Schneefall
Fr, 03.12. 1:00 0.2° C Schneefall
Fr, 03.12. 0:50 0° C Schneefall
Fr, 03.12. 0:20 0° C leichter Schneefall
Fr, 03.12. 0:00 0.6° C Sprühregen
Do, 02.12. 23:50 1° C Sprühregen
Do, 02.12. 23:20 1° C bewölkt
Do, 02.12. 23:00 0.2° C leichter Schneeregen
Do, 02.12. 22:20 2° C leichter Regen
Ortszeit Relative Feuchte Sichtweite
Fr, 03.12. 1:00 99% 2.8 km
Do, 02.12. 19:00 81% 24 km
Do, 02.12. 13:00 86% 55 km
Do, 02.12. 7:00 92% 55 km
Do, 02.12. 1:00 95% 40 km
Mi, 01.12. 19:00 87% 50 km
Mi, 01.12. 13:00 80% 50 km
Mi, 01.12. 7:00 94% 70 km
Ortszeit Relative Feuchte Sichtweite
Fr, 03.12. 1:50 93% 7 km
Fr, 03.12. 1:20 100% 5.0 km
Fr, 03.12. 1:00 99% 2.8 km
Fr, 03.12. 0:50 100% 3.0 km
Fr, 03.12. 0:20 100% 7 km
Fr, 03.12. 0:00 97% 23 km
Do, 02.12. 23:50 93% >10 km
Do, 02.12. 23:20 93% >10 km
Do, 02.12. 23:00 99% 5.0 km
Do, 02.12. 22:20 87% >10 km
Ortszeit Niederschlagsmenge Niederschlagsart
Fr, 03.12. 1:00 3 l/m2 in 6 Std. -
Do, 02.12. 19:00 0.3 l/m2 in 12 Std. -
Do, 02.12. 13:00 0.1 l/m2 in 6 Std. -
Do, 02.12. 7:00 0.9 l/m2 in 12 Std. -
Do, 02.12. 1:00 0.8 l/m2 in 6 Std. -
Mi, 01.12. 19:00 0.1 l/m2 in 12 Std. -
Mi, 01.12. 13:00 0.1 l/m2 in 6 Std. -
Mi, 01.12. 7:00 5 l/m2 in 12 Std. -
Ortszeit Niederschlagsmenge Niederschlagsart
Fr, 03.12. 1:50 keine Meldung -
Fr, 03.12. 1:20 keine Meldung -
Fr, 03.12. 1:00 0.9 l/m2 in 1 Std. -
Fr, 03.12. 0:50 keine Meldung -
Fr, 03.12. 0:20 keine Meldung -
Fr, 03.12. 0:00 0.1 l/m2 in 1 Std. -
Do, 02.12. 23:50 keine Meldung -
Do, 02.12. 23:20 keine Meldung -
Do, 02.12. 23:00 0.7 l/m2 in 1 Std. -
Do, 02.12. 22:20 keine Meldung -
Ortszeit Stärke Spitze Richtung
km/h Bft. km/h Grad Sektor
Fr, 03.12. 1:00 11 2 - 290° W
Do, 02.12. 19:00 18 3 - 310° NW
Do, 02.12. 13:00 7 2 - - -
Do, 02.12. 7:00 4 1 - - -
Do, 02.12. 1:00 7 2 - - -
Mi, 01.12. 19:00 18 3 - 150° SO
Mi, 01.12. 13:00 4 1 - - -
Mi, 01.12. 7:00 14 3 - 170° S
Ortszeit Stärke Spitze Richtung
km/h Bft. km/h Grad Sektor
Fr, 03.12. 1:50 7 2 - 290° W
Fr, 03.12. 1:20 11 2 - 290° W
Fr, 03.12. 1:00 11 2 - 290° W
Fr, 03.12. 0:50 11 2 - 290° W
Fr, 03.12. 0:20 4 1 - uml. uml.
Fr, 03.12. 0:00 4 1 - - -
Do, 02.12. 23:50 2 1 - uml. uml.
Do, 02.12. 23:20 4 1 - 270° W
Do, 02.12. 23:00 11 2 - - -
Do, 02.12. 22:20 15 3 - 310° NW
Ortszeit Untergrenze Bedeckung Gattung
total tief tief mittel hoch
Fr, 03.12. 1:00 60 m 8/8 5/8 - - -
Do, 02.12. 19:00 360 m 8/8 5/8 Sc - -
Do, 02.12. 13:00 1020 m 7/8 3/8 Sc Ac -
Do, 02.12. 7:00 900 m 8/8 6/8 Sc - -
Do, 02.12. 1:00 1500 m 8/8 6/8 - - -
Mi, 01.12. 19:00 2100 m 7/8 3/8 Sc Ac -
Mi, 01.12. 13:00 360 m 4/8 3/8 Sc - -
Mi, 01.12. 7:00 150 m 8/8 6/8 St - -
Ortszeit Bedeckungsgrad in Achtel und Wolkenuntergrenze
Fr, 03.12. 1:50 1-2(150m) 3-4(570m) 5-7(1200m)
Fr, 03.12. 1:20 3-4(120m) 5-7(420m)
Fr, 03.12. 1:00 1(60m) 3(120m) 5(300m)
Fr, 03.12. 0:50 1-2(60m) 3-4(120m) 5-7(300m)
Fr, 03.12. 0:20 1-2(60m) 3-4(120m) 5-7(360m)
Fr, 03.12. 0:00 1(180m) 5(270m)
Do, 02.12. 23:50 1-2(180m) 5-7(270m)
Do, 02.12. 23:20 1-2(180m) 3-4(960m) 5-7(1380m)
Do, 02.12. 23:00 1(150m) 3(270m) 5(450m)
Do, 02.12. 22:20 1-2(90m) 3-4(600m) 5-7(1020m)
Ortszeit Luftdruck NN (hPa) Tendenz (hPa in 3 Std.)
Fr, 03.12. 1:00 1010 + 1,8
Do, 02.12. 19:00 1003 + 1,8
Do, 02.12. 13:00 1001 - 1,2
Do, 02.12. 7:00 1002 + 0,3
Do, 02.12. 1:00 1002 - 0,1
Mi, 01.12. 19:00 1000 - 1,0
Mi, 01.12. 13:00 1005 - 1,5
Mi, 01.12. 7:00 1010 - 1,7
Ortszeit Luftdruck NN (hPa) Tendenz (hPa in 3 Std.)
Fr, 03.12. 1:50 1008 keine Meldung
Fr, 03.12. 1:20 1008 keine Meldung
Fr, 03.12. 1:00 1010 + 1,8
Fr, 03.12. 0:50 1008 keine Meldung
Fr, 03.12. 0:20 1007 keine Meldung
Fr, 03.12. 0:00 1009 + 2,6
Do, 02.12. 23:50 1007 keine Meldung
Do, 02.12. 23:20 1007 keine Meldung
Do, 02.12. 23:00 1009 + 3,0
Do, 02.12. 22:20 1006 keine Meldung
Ortszeit Schneehöhe (cm)
Fr, 03.12. 1:00 -
Do, 02.12. 19:00 -
Do, 02.12. 13:00 -
Do, 02.12. 7:00 -
Do, 02.12. 1:00 -
Mi, 01.12. 19:00 -
Mi, 01.12. 13:00 -
Mi, 01.12. 7:00 -
Ortszeit Schneehöhe (cm)
Fr, 03.12. 1:50 -
Fr, 03.12. 1:20 -
Fr, 03.12. 1:00 -
Fr, 03.12. 0:50 -
Fr, 03.12. 0:20 -
Fr, 03.12. 0:00 -
Do, 02.12. 23:50 -
Do, 02.12. 23:20 -
Do, 02.12. 23:00 -
Do, 02.12. 22:20 -
Link zu dieser Seite / Seite empfehlen

Das Wetter in ...